createdAt,value
2022-11-25T00:03:35.716Z,4.01
2022-11-25T00:07:37.858Z,4.00
2022-11-25T00:11:42.300Z,3.95
2022-11-25T00:15:44.377Z,3.98
2022-11-25T00:19:49.124Z,3.86
2022-11-25T00:23:56.869Z,3.95
2022-11-25T00:27:59.393Z,4.09
2022-11-25T00:32:01.596Z,4.27
2022-11-25T00:36:07.271Z,4.39
2022-11-25T00:40:09.979Z,4.49
2022-11-25T00:44:32.758Z,4.57
2022-11-25T00:48:35.263Z,4.63
2022-11-25T00:52:37.981Z,4.64
2022-11-25T00:56:40.244Z,4.62
2022-11-25T01:00:42.603Z,4.67
2022-11-25T01:04:46.681Z,4.68
2022-11-25T01:08:51.051Z,4.74
2022-11-25T01:12:53.368Z,4.83
2022-11-25T01:16:55.645Z,4.89
2022-11-25T01:21:15.819Z,4.97
2022-11-25T01:25:21.424Z,5.01
2022-11-25T01:29:24.461Z,4.84
2022-11-25T01:33:29.451Z,4.71
2022-11-25T01:37:33.206Z,4.66
2022-11-25T01:41:36.150Z,4.40
2022-11-25T01:45:38.647Z,4.49
2022-11-25T01:50:00.264Z,4.66
2022-11-25T01:54:05.752Z,4.77
2022-11-25T01:58:11.901Z,4.84
2022-11-25T02:02:15.909Z,4.87
2022-11-25T02:06:25.492Z,4.86
2022-11-25T02:10:31.281Z,4.89
2022-11-25T02:14:35.383Z,4.91
2022-11-25T02:18:38.608Z,4.90
2022-11-25T02:23:19.902Z,4.93
2022-11-25T02:27:22.074Z,4.94
2022-11-25T02:31:24.649Z,4.78
2022-11-25T02:35:36.848Z,4.77
2022-11-25T02:39:39.952Z,4.78
2022-11-25T02:43:42.459Z,4.97
2022-11-25T02:47:44.454Z,5.10
2022-11-25T02:51:46.846Z,5.27
2022-11-25T02:55:49.023Z,5.36
2022-11-25T02:59:51.112Z,5.49
2022-11-25T03:03:54.450Z,5.45
2022-11-25T03:07:56.540Z,5.46
2022-11-25T03:12:19.624Z,5.46
2022-11-25T03:16:21.795Z,5.42
2022-11-25T03:20:25.015Z,5.32
2022-11-25T03:24:27.281Z,5.33
2022-11-25T03:28:29.408Z,5.50
2022-11-25T03:32:32.466Z,5.69
2022-11-25T03:36:35.193Z,5.73
2022-11-25T03:40:37.396Z,5.72
2022-11-25T03:44:41.960Z,5.34
2022-11-25T03:48:45.037Z,5.48
2022-11-25T03:52:47.377Z,5.61
2022-11-25T03:56:50.049Z,5.73
2022-11-25T04:00:52.138Z,5.80
2022-11-25T04:04:55.466Z,5.80
2022-11-25T04:08:58.986Z,5.84
2022-11-25T04:13:01.599Z,5.95
2022-11-25T04:17:16.548Z,6.13
2022-11-25T04:21:19.950Z,6.21
2022-11-25T04:25:22.538Z,6.23
2022-11-25T04:29:24.913Z,6.23
2022-11-25T04:33:28.182Z,6.20
2022-11-25T04:37:30.357Z,6.12
2022-11-25T04:41:34.202Z,6.01
2022-11-25T04:46:06.426Z,5.92
2022-11-25T04:50:04.502Z,5.78
2022-11-25T04:54:13.402Z,5.90
2022-11-25T04:58:40.233Z,5.91
2022-11-25T05:02:43.495Z,5.79
2022-11-25T05:06:52.734Z,5.81
2022-11-25T05:10:59.376Z,5.99
2022-11-25T05:15:01.707Z,6.04
2022-11-25T05:19:04.501Z,6.19
2022-11-25T05:23:06.633Z,6.27
2022-11-25T05:27:09.038Z,5.92
2022-11-25T05:31:11.428Z,5.78
2022-11-25T05:35:13.780Z,5.56
2022-11-25T05:39:15.990Z,5.50
2022-11-25T05:43:37.670Z,5.40
2022-11-25T05:47:40.977Z,5.47
2022-11-25T05:51:43.667Z,5.69
2022-11-25T05:55:55.126Z,5.41
2022-11-25T06:00:07.419Z,5.38
2022-11-25T06:04:24.991Z,5.65
2022-11-25T06:08:28.147Z,5.82
2022-11-25T06:12:30.346Z,5.96
2022-11-25T06:16:41.381Z,6.08
2022-11-25T06:21:03.098Z,6.08
2022-11-25T06:25:05.684Z,6.01
2022-11-25T06:29:10.929Z,5.98
2022-11-25T06:33:15.420Z,6.20
2022-11-25T06:37:20.789Z,6.25
2022-11-25T06:41:23.297Z,6.15
2022-11-25T06:45:25.515Z,6.02
2022-11-25T06:49:29.381Z,6.12
2022-11-25T06:53:32.755Z,6.14
2022-11-25T06:57:35.139Z,6.39
2022-11-25T07:01:38.362Z,6.48
2022-11-25T07:05:40.570Z,6.65
2022-11-25T07:09:42.654Z,6.77
2022-11-25T07:13:45.280Z,6.90
2022-11-25T07:17:47.723Z,6.96
2022-11-25T07:21:49.811Z,7.16
2022-11-25T07:25:51.904Z,7.28
2022-11-25T07:30:29.150Z,7.36
2022-11-25T07:34:20.187Z,7.14
2022-11-25T07:38:22.305Z,7.32
2022-11-25T07:42:24.821Z,7.41
2022-11-25T07:46:29.853Z,7.38
2022-11-25T07:50:32.971Z,7.47
2022-11-25T07:54:36.174Z,7.48
2022-11-25T07:58:44.409Z,7.31
2022-11-25T08:02:48.164Z,7.43
2022-11-25T08:06:52.316Z,7.57
2022-11-25T08:10:54.442Z,7.64
2022-11-25T08:14:56.899Z,7.78
2022-11-25T08:19:01.395Z,8.01
2022-11-25T08:23:03.503Z,8.10
2022-11-25T08:27:05.625Z,8.29
2022-11-25T08:31:13.290Z,8.40
2022-11-25T08:35:15.554Z,8.31
2022-11-25T08:39:51.753Z,8.24
2022-11-25T08:43:43.622Z,8.43
2022-11-25T08:47:45.727Z,8.39
2022-11-25T08:51:48.168Z,8.61
2022-11-25T08:55:50.775Z,8.69
2022-11-25T08:59:52.989Z,9.03
2022-11-25T09:03:57.050Z,9.38
2022-11-25T09:07:59.092Z,9.51
2022-11-25T09:12:01.482Z,9.63
2022-11-25T09:16:04.362Z,9.74
2022-11-25T09:20:07.295Z,9.87
2022-11-25T09:24:10.103Z,10.08
2022-11-25T09:28:12.075Z,10.18
2022-11-25T09:32:14.417Z,10.48
2022-11-25T09:36:18.827Z,10.55
2022-11-25T09:40:25.660Z,10.80
2022-11-25T09:45:04.859Z,11.04
2022-11-25T09:49:29.029Z,11.19
2022-11-25T09:53:40.269Z,11.24
2022-11-25T09:57:59.659Z,11.56
2022-11-25T10:02:10.585Z,11.73
2022-11-25T10:06:19.439Z,11.74
2022-11-25T10:10:32.775Z,11.82
2022-11-25T10:14:45.425Z,11.84
2022-11-25T10:18:59.163Z,12.06
2022-11-25T10:23:10.718Z,12.12
2022-11-25T10:27:19.649Z,12.18
2022-11-25T10:31:35.650Z,12.15
2022-11-25T10:35:51.888Z,12.09
2022-11-25T10:39:54.042Z,12.15
2022-11-25T10:43:56.256Z,12.40
2022-11-25T10:48:25.131Z,12.53
2022-11-25T10:52:30.790Z,12.74
2022-11-25T10:56:44.171Z,12.91
2022-11-25T11:00:46.595Z,13.02
2022-11-25T11:04:53.803Z,13.10
2022-11-25T11:08:55.957Z,13.11
2022-11-25T11:13:06.631Z,13.17
2022-11-25T11:17:40.862Z,13.15
2022-11-25T11:21:43.926Z,13.30
2022-11-25T11:26:09.847Z,13.23
2022-11-25T11:30:22.015Z,13.34
2022-11-25T11:34:50.570Z,13.31
2022-11-25T11:38:56.483Z,13.36
2022-11-25T11:43:26.676Z,13.19
2022-11-25T11:47:47.795Z,13.36
2022-11-25T11:52:03.112Z,13.75
2022-11-25T12:00:51.294Z,14.16
2022-11-25T12:05:02.971Z,13.97
2022-11-25T12:09:10.825Z,14.20
2022-11-25T12:13:43.548Z,14.37
2022-11-25T12:17:58.098Z,14.54
2022-11-25T12:22:38.712Z,14.53
2022-11-25T12:26:55.929Z,14.64
2022-11-25T12:31:13.336Z,14.45
2022-11-25T12:35:34.192Z,14.44
2022-11-25T12:40:16.733Z,14.37
2022-11-25T12:44:48.289Z,14.25
2022-11-25T12:48:52.568Z,14.01
2022-11-25T12:53:12.741Z,13.81
2022-11-25T12:57:59.642Z,13.69
2022-11-25T13:02:48.129Z,13.60
2022-11-25T13:07:19.927Z,13.51
2022-11-25T13:11:51.766Z,13.57
2022-11-25T13:15:55.468Z,13.29
2022-11-25T13:20:28.894Z,13.10
2022-11-25T13:24:44.506Z,12.85
2022-11-25T13:28:47.940Z,12.82
2022-11-25T13:32:50.140Z,12.82
2022-11-25T13:36:58.290Z,12.84
2022-11-25T13:41:12.572Z,12.59
2022-11-25T13:45:29.484Z,12.25
2022-11-25T13:49:38.747Z,12.29
2022-11-25T13:53:41.292Z,12.40
2022-11-25T13:58:04.667Z,12.44
2022-11-25T14:02:29.347Z,12.40
2022-11-25T14:06:44.120Z,12.36
2022-11-25T14:10:49.174Z,12.29
2022-11-25T14:15:11.938Z,12.22
2022-11-25T14:19:58.405Z,12.14
2022-11-25T14:24:07.223Z,12.02
2022-11-25T14:28:19.378Z,12.07
2022-11-25T14:32:35.620Z,12.04
2022-11-25T14:36:49.752Z,11.98
2022-11-25T14:41:00.546Z,11.95
2022-11-25T14:45:03.449Z,11.93
2022-11-25T14:49:18.944Z,11.85
2022-11-25T14:53:28.845Z,11.77
2022-11-25T14:57:34.876Z,11.73
2022-11-25T15:01:38.681Z,11.66
2022-11-25T15:05:41.198Z,11.60
2022-11-25T15:09:45.335Z,11.53
2022-11-25T15:14:05.431Z,11.32
2022-11-25T15:18:11.523Z,11.25
2022-11-25T15:22:23.427Z,11.26
2022-11-25T15:26:30.368Z,11.32
2022-11-25T15:30:32.483Z,11.32
2022-11-25T15:34:34.859Z,11.23
2022-11-25T15:38:41.630Z,11.11
2022-11-25T15:42:43.736Z,10.89
2022-11-25T15:47:22.343Z,10.93
2022-11-25T15:51:38.490Z,10.78
2022-11-25T15:55:41.169Z,10.66
2022-11-25T15:59:54.001Z,10.59
2022-11-25T16:04:11.440Z,10.44
2022-11-25T16:08:23.359Z,10.34
2022-11-25T16:12:25.644Z,10.22
2022-11-25T16:16:30.198Z,10.34
2022-11-25T16:20:32.364Z,10.38
2022-11-25T16:24:50.819Z,10.35
2022-11-25T16:28:57.342Z,10.39
2022-11-25T16:32:59.835Z,10.30
2022-11-25T16:37:02.092Z,10.37
2022-11-25T16:41:25.151Z,10.34
2022-11-25T16:45:28.870Z,10.38
2022-11-25T16:49:32.013Z,10.43
2022-11-25T16:53:34.079Z,10.42
2022-11-25T16:57:37.824Z,10.42
2022-11-25T17:01:40.117Z,10.37
2022-11-25T17:05:42.306Z,10.22
2022-11-25T17:09:45.541Z,10.02
2022-11-25T17:13:51.020Z,9.99
2022-11-25T17:17:53.591Z,9.98
2022-11-25T17:21:55.707Z,9.94
2022-11-25T17:25:57.826Z,9.96
2022-11-25T17:30:03.675Z,10.03
2022-11-25T17:34:07.493Z,10.11
2022-11-25T17:38:18.027Z,10.17
2022-11-25T17:42:28.044Z,10.25
2022-11-25T17:46:30.031Z,10.34
2022-11-25T17:50:36.252Z,10.37
2022-11-25T17:54:38.493Z,10.44
2022-11-25T17:58:41.297Z,10.46
2022-11-25T18:02:43.850Z,10.53
2022-11-25T18:06:45.870Z,10.55
2022-11-25T18:10:47.923Z,10.53
2022-11-25T18:14:50.144Z,10.52
2022-11-25T18:18:52.550Z,10.49
2022-11-25T18:22:54.709Z,10.43
2022-11-25T18:26:57.973Z,10.34
2022-11-25T18:31:04.532Z,10.32
2022-11-25T18:35:39.687Z,10.37
2022-11-25T18:39:42.124Z,10.32
2022-11-25T18:43:44.247Z,10.39
2022-11-25T18:47:46.292Z,10.40
2022-11-25T18:51:48.450Z,10.44
2022-11-25T18:55:50.623Z,10.43
2022-11-25T19:00:16.914Z,10.59
2022-11-25T19:04:16.534Z,10.70
2022-11-25T19:08:21.466Z,10.64
2022-11-25T19:12:23.708Z,10.61
2022-11-25T19:16:27.731Z,10.67
2022-11-25T19:20:30.399Z,10.89
2022-11-25T19:24:32.625Z,11.03
2022-11-25T19:28:35.029Z,10.97
2022-11-25T19:32:37.284Z,10.84
2022-11-25T19:36:39.322Z,10.73
2022-11-25T19:40:41.580Z,10.64
2022-11-25T19:44:46.573Z,10.54
2022-11-25T19:48:48.985Z,10.47
2022-11-25T19:52:52.209Z,10.50
2022-11-25T19:56:54.362Z,10.56
2022-11-25T20:00:58.244Z,10.57
2022-11-25T20:05:00.512Z,10.54
2022-11-25T20:09:07.818Z,10.49
2022-11-25T20:13:10.218Z,10.44
2022-11-25T20:17:21.904Z,10.45
2022-11-25T20:21:34.685Z,10.40
2022-11-25T20:25:42.164Z,10.30
2022-11-25T20:29:44.248Z,10.28
2022-11-25T20:33:48.374Z,10.27
2022-11-25T20:38:08.647Z,10.29
2022-11-25T20:42:12.748Z,10.10
2022-11-25T20:46:23.229Z,10.10
2022-11-25T20:50:30.031Z,10.12
2022-11-25T20:54:36.433Z,10.18
2022-11-25T20:58:38.905Z,10.20
2022-11-25T21:02:42.645Z,10.09
2022-11-25T21:06:45.337Z,10.10
2022-11-25T21:10:47.468Z,10.13
2022-11-25T21:14:50.297Z,10.19
2022-11-25T21:18:52.373Z,10.15
2022-11-25T21:22:58.046Z,10.22
2022-11-25T21:27:04.272Z,10.15
2022-11-25T21:31:11.143Z,10.13
2022-11-25T21:35:15.050Z,10.21
2022-11-25T21:39:34.348Z,10.12
2022-11-25T21:43:42.008Z,10.10
2022-11-25T21:47:44.180Z,10.20
2022-11-25T21:51:46.295Z,10.15
2022-11-25T21:55:48.878Z,10.24
2022-11-25T21:59:51.129Z,10.17
2022-11-25T22:03:54.052Z,10.14
2022-11-25T22:07:57.103Z,9.91
2022-11-25T22:11:59.461Z,9.64
2022-11-25T22:16:01.912Z,9.53
2022-11-25T22:20:05.292Z,9.40
2022-11-25T22:24:19.050Z,9.38
2022-11-25T22:28:30.302Z,9.38
2022-11-25T22:32:32.605Z,9.35
2022-11-25T22:36:37.575Z,9.39
2022-11-25T22:40:51.481Z,9.43
2022-11-25T22:44:56.401Z,9.50
2022-11-25T22:48:58.433Z,9.51
2022-11-25T22:53:01.422Z,9.57
2022-11-25T22:57:04.002Z,9.40
2022-11-25T23:01:06.399Z,9.36
2022-11-25T23:05:22.140Z,9.43
2022-11-25T23:09:24.347Z,9.44
2022-11-25T23:13:26.695Z,9.46
2022-11-25T23:17:28.740Z,9.50
2022-11-25T23:21:31.752Z,9.45
2022-11-25T23:25:34.050Z,9.51
2022-11-25T23:29:36.234Z,9.48
2022-11-25T23:33:40.204Z,9.56
2022-11-25T23:37:42.360Z,9.60
2022-11-25T23:41:44.549Z,9.54
2022-11-25T23:45:52.546Z,9.39
2022-11-25T23:49:57.763Z,9.53
2022-11-25T23:54:00.005Z,9.57
2022-11-25T23:58:04.781Z,9.59
